Time;durP1;ratioP1;P1;durP2;ratioP2;P2;SDS_P1;SDS_P2;PMS_P1;PMS_P2;Temp;Humidity;BMP_temperature;BMP_pressure;BME280_temperature;BME280_humidity;BME280_pressure;Samples;Min_cycle;Max_cycle;Signal;HPM_P1;HPM_P2
2023/04/17 00:07:06;;;;;;;7.22;5.68;;;;;;;26.64;41.94;100453.31;20994289;28;20074;-78
2023/04/17 00:17:10;;;;;;;5.90;5.00;;;;;;;26.57;41.77;100460.25;20994053;28;20082;-79
2023/04/17 00:27:12;;;;;;;6.40;5.00;;;;;;;26.52;41.17;100468.00;20992465;28;20056;-80
2023/04/17 00:37:13;;;;;;;5.85;5.10;;;;;;;26.20;41.14;100415.97;20960991;28;20411;-79
2023/04/17 00:47:14;;;;;;;6.88;4.60;;;;;;;26.38;40.70;100473.72;20994341;28;20070;-82
2023/04/17 00:57:17;;;;;;;7.68;5.20;;;;;;;26.38;40.78;100501.78;20980317;28;20566;-83
2023/04/17 01:07:18;;;;;;;8.48;5.30;;;;;;;26.25;40.79;100502.75;20990205;28;20487;-84
2023/04/17 01:17:20;;;;;;;7.25;5.45;;;;;;;26.16;41.06;100528.00;20982020;28;20428;-84
2023/04/17 01:27:22;;;;;;;6.18;5.25;;;;;;;26.36;41.99;100530.19;20973749;28;20056;-82
2023/04/17 01:37:23;;;;;;;7.20;4.97;;;;;;;25.95;42.81;100459.66;20989032;28;20044;-77
2023/04/17 01:47:30;;;;;;;7.47;4.75;;;;;;;25.76;42.93;100396.31;20979584;28;21495;-78
2023/04/17 01:57:32;;;;;;;5.45;4.72;;;;;;;26.41;43.49;100492.72;20983137;28;20044;-74
2023/04/17 02:07:33;;;;;;;8.23;5.32;;;;;;;26.42;43.42;100473.91;20979636;28;20394;-76
2023/04/17 02:17:34;;;;;;;6.07;4.70;;;;;;;26.50;43.50;100475.94;20995773;28;20071;-76
2023/04/17 02:27:36;;;;;;;7.80;5.03;;;;;;;26.51;43.28;100489.63;20972359;28;20561;-76
2023/04/17 02:37:37;;;;;;;5.30;4.40;;;;;;;26.56;42.46;100475.41;20987042;28;20040;-77
2023/04/17 02:47:39;;;;;;;6.25;4.40;;;;;;;26.65;42.30;100478.22;20980454;28;20458;-77
2023/04/17 02:57:40;;;;;;;4.80;4.18;;;;;;;26.33;42.03;100413.00;20965185;28;20098;-77
2023/04/17 03:07:41;;;;;;;5.00;4.38;;;;;;;26.55;42.19;100428.06;20969636;28;20052;-77
2023/04/17 03:17:43;;;;;;;6.80;4.47;;;;;;;26.71;41.84;100465.69;20956322;28;20048;-77
2023/04/17 03:27:45;;;;;;;5.95;4.10;;;;;;;26.51;42.12;100432.69;20979173;28;20560;-77
2023/04/17 03:37:46;;;;;;;4.88;3.95;;;;;;;26.54;41.76;100409.56;20957861;28;20499;-76
2023/04/17 03:47:48;;;;;;;5.25;4.32;;;;;;;26.67;41.89;100416.16;20987699;28;20396;-76
2023/04/17 03:57:50;;;;;;;7.43;4.10;;;;;;;26.71;41.96;100419.94;20982090;28;20037;-77
2023/04/17 04:07:54;;;;;;;4.00;3.60;;;;;;;26.73;42.14;100400.78;20986484;28;20079;-78
2023/04/17 04:17:55;;;;;;;5.25;4.25;;;;;;;26.54;41.88;100361.88;20984063;28;20188;-78
2023/04/17 04:27:57;;;;;;;5.25;3.70;;;;;;;26.67;41.90;100360.03;20987260;28;20048;-78
2023/04/17 04:38:01;;;;;;;4.90;4.03;;;;;;;26.73;42.08;100362.31;20973897;28;20040;-78
2023/04/17 04:48:09;;;;;;;5.10;3.78;;;;;;;26.74;41.97;100340.69;20984661;28;20479;-78
2023/04/17 04:58:10;;;;;;;;;;;;;;;26.73;42.11;100325.81;20995021;28;20364;-77
2023/04/17 05:08:11;;;;;;;4.10;3.67;;;;;;;26.56;41.98;100264.13;20992740;28;19917;-75
2023/04/17 05:18:15;;;;;;;5.22;3.90;;;;;;;26.72;41.95;100286.88;21000724;28;20040;-77
2023/04/17 05:28:20;;;;;;;3.78;3.38;;;;;;;26.71;42.19;100293.63;20998399;28;20036;-76
2023/04/17 05:38:21;;;;;;;3.80;3.50;;;;;;;26.70;42.04;100259.13;20994885;28;20099;-76
2023/04/17 05:48:23;;;;;;;4.32;3.70;;;;;;;26.56;41.89;100244.50;20996713;28;20040;-76
2023/04/17 05:58:24;;;;;;;4.03;3.63;;;;;;;26.52;41.78;100212.66;20981557;28;20041;-75
2023/04/17 06:08:26;;;;;;;3.95;3.50;;;;;;;26.65;41.92;100253.72;20990955;28;20036;-76
2023/04/17 06:18:28;;;;;;;3.78;3.45;;;;;;;26.57;41.77;100226.50;20994839;28;20036;-77
2023/04/17 06:28:29;;;;;;;3.97;3.58;;;;;;;26.57;41.76;100199.28;20995108;28;20048;-76
2023/04/17 06:38:33;;;;;;;3.63;3.33;;;;;;;26.51;41.75;100171.75;20995750;28;20045;-76
2023/04/17 06:48:35;;;;;;;4.15;3.75;;;;;;;26.58;41.39;100180.47;20995653;28;20032;-76
2023/04/17 06:58:42;;;;;;;3.88;3.53;;;;;;;26.55;41.54;100181.94;20994287;28;20044;-76
2023/04/17 07:08:44;;;;;;;4.35;3.38;;;;;;;26.57;41.12;100164.78;20993406;28;20041;-76
2023/04/17 07:18:48;;;;;;;4.95;3.53;;;;;;;26.54;41.67;100171.91;20993983;28;20105;-76
2023/04/17 07:28:49;;;;;;;3.92;3.63;;;;;;;26.53;41.41;100155.41;20992613;28;20106;-76
2023/04/17 07:38:51;;;;;;;4.15;3.75;;;;;;;26.52;41.49;100150.94;20989399;28;20098;-74
2023/04/17 07:48:52;;;;;;;4.20;3.80;;;;;;;26.50;41.14;100161.69;20989752;28;20122;-76
2023/04/17 07:58:53;;;;;;;3.70;3.40;;;;;;;26.03;41.29;100071.97;20979600;28;20102;-75
2023/04/17 08:08:54;;;;;;;4.18;3.78;;;;;;;26.47;41.46;100151.13;20986038;28;20115;-76
2023/04/17 08:18:56;;;;;;;3.67;3.38;;;;;;;26.40;41.41;100134.00;20989796;28;20049;-76
2023/04/17 08:29:00;;;;;;;4.00;3.70;;;;;;;25.88;41.40;100020.06;20987232;28;20475;-78
2023/04/17 08:39:02;;;;;;;4.18;3.78;;;;;;;26.38;41.62;100108.25;20988999;28;20113;-77
2023/04/17 08:49:07;;;;;;;3.45;3.15;;;;;;;26.45;41.33;100125.41;21005501;28;20098;-77
2023/04/17 08:59:11;;;;;;;3.95;3.55;;;;;;;26.36;41.64;100117.81;21002991;28;20048;-77
2023/04/17 09:09:15;;;;;;;3.90;3.60;;;;;;;26.44;41.52;100146.22;21000868;28;20040;-77
2023/04/17 09:19:17;;;;;;;4.07;3.78;;;;;;;26.41;41.55;100164.50;21001252;28;20063;-76
2023/04/17 09:29:18;;;;;;;3.80;3.50;;;;;;;26.45;41.53;100173.91;21001471;28;20041;-77
2023/04/17 09:39:25;;;;;;;4.05;3.75;;;;;;;26.44;41.76;100189.13;20998232;28;20048;-76
2023/04/17 09:49:33;;;;;;;4.35;3.92;;;;;;;26.43;41.80;100172.56;20987944;28;20094;-77
2023/04/17 09:59:44;;;;;;;3.95;3.65;;;;;;;26.43;41.72;100161.34;20990508;28;20508;-76
2023/04/17 10:09:46;;;;;;;4.47;3.75;;;;;;;26.39;41.69;100132.31;21000275;28;20040;-76
2023/04/17 10:19:47;;;;;;;4.40;3.50;;;;;;;26.43;41.61;100155.72;20963045;28;20049;-76
2023/04/17 10:30:00;;;;;;;4.68;4.28;;;;;;;26.41;41.55;100174.91;20998478;28;20399;-77
2023/04/17 10:40:19;;;;;;;4.05;3.72;;;;;;;26.38;41.60;100164.34;20988671;28;20040;-77
2023/04/17 10:50:27;;;;;;;3.70;3.40;;;;;;;26.40;41.92;100206.91;20995112;28;20560;-77
2023/04/17 11:00:35;;;;;;;5.97;3.40;;;;;;;26.41;42.50;100247.84;20985457;28;20391;-77
2023/04/17 11:10:37;;;;;;;7.30;3.67;;;;;;;26.43;42.92;100274.41;20983836;28;20102;-77
2023/04/17 11:20:40;;;;;;;10.20;4.88;;;;;;;26.47;45.60;100303.44;20994101;28;20086;-79
2023/04/17 11:30:43;;;;;;;13.88;4.13;;;;;;;26.45;45.48;100271.28;20997883;28;20479;-79
2023/04/17 11:40:47;;;;;;;11.27;4.00;;;;;;;26.51;45.17;100286.78;20991545;28;20106;-78
2023/04/17 11:50:52;;;;;;;4.80;3.88;;;;;;;26.58;44.91;100298.31;20952897;28;20033;-78
2023/04/17 12:01:05;;;;;;;13.90;4.50;;;;;;;26.55;44.57;100299.81;20959554;28;20105;-79
2023/04/17 12:11:13;;;;;;;6.47;4.30;;;;;;;26.60;44.44;100315.63;20937077;28;20045;-74
2023/04/17 12:21:15;;;;;;;9.23;3.90;;;;;;;26.49;44.23;100287.13;20940721;28;20048;-76
2023/04/17 12:31:16;;;;;;;11.13;3.50;;;;;;;26.46;44.04;100239.25;20973059;28;20094;-75
2023/04/17 12:41:17;;;;;;;7.95;3.75;;;;;;;26.63;43.65;100295.31;20985487;28;20116;-75
2023/04/17 12:51:19;;;;;;;4.00;3.60;;;;;;;26.20;43.27;100231.72;20983450;28;20037;-75
2023/04/17 13:01:24;;;;;;;4.63;2.60;;;;;;;26.63;42.70;100311.34;20980119;28;20036;-76
2023/04/17 13:11:25;;;;;;;4.72;2.90;;;;;;;26.54;42.57;100312.19;20963941;28;20158;-76
2023/04/17 13:21:26;;;;;;;3.20;2.85;;;;;;;26.36;42.14;100283.31;20989338;28;20033;-75
2023/04/17 13:31:28;;;;;;;4.97;2.90;;;;;;;26.50;42.31;100296.34;20991977;28;20052;-76
2023/04/17 13:41:29;;;;;;;3.05;2.20;;;;;;;26.51;41.80;100331.66;20997248;28;20075;-75
2023/04/17 13:51:30;;;;;;;3.33;2.83;;;;;;;26.50;41.43;100324.41;21000093;28;20048;-74
2023/04/17 14:01:34;;;;;;;2.70;2.38;;;;;;;26.49;41.72;100322.78;21001543;28;20053;-73
2023/04/17 14:11:36;;;;;;;2.95;2.20;;;;;;;26.45;42.10;100333.00;21001413;28;20344;-73
2023/04/17 14:21:37;;;;;;;5.57;2.75;;;;;;;26.41;42.12;100337.59;20969521;28;20503;-73
2023/04/17 14:31:39;;;;;;;2.15;1.95;;;;;;;25.80;41.75;100251.59;20941616;28;20503;-73
2023/04/17 14:41:40;;;;;;;1.92;1.80;;;;;;;26.42;41.58;100353.28;20997798;28;20561;-73
2023/04/17 14:51:42;;;;;;;2.80;2.45;;;;;;;26.05;41.63;100280.72;20996867;28;20041;-74
2023/04/17 15:01:43;;;;;;;3.42;2.38;;;;;;;26.40;41.81;100352.78;20977636;28;20052;-71
2023/04/17 15:11:47;;;;;;;2.92;2.13;;;;;;;26.33;41.46;100359.72;20997413;28;20098;-71
2023/04/17 15:21:49;;;;;;;2.67;2.03;;;;;;;26.33;41.51;100359.72;20997802;28;20040;-71
2023/04/17 15:31:51;;;;;;;3.80;2.13;;;;;;;26.28;41.42;100348.66;20996657;28;20044;-72
2023/04/17 15:41:55;;;;;;;2.00;1.80;;;;;;;26.30;41.18;100353.97;20997132;28;20028;-72
2023/04/17 15:51:56;;;;;;;2.78;2.03;;;;;;;26.13;41.38;100326.75;20995156;28;20037;-72
2023/04/17 16:01:58;;;;;;;2.22;2.03;;;;;;;26.31;41.11;100350.00;20994959;28;20048;-73
2023/04/17 16:12:01;;;;;;;2.15;1.60;;;;;;;26.24;41.01;100324.41;20994687;28;20044;-72
2023/04/17 16:22:06;;;;;;;1.60;1.50;;;;;;;26.27;41.21;100312.56;20994170;28;20099;-72
2023/04/17 16:32:07;;;;;;;3.17;2.20;;;;;;;26.29;40.99;100290.59;20993705;28;20403;-73
2023/04/17 16:42:09;;;;;;;2.33;2.13;;;;;;;26.26;41.01;100275.28;20993450;28;20475;-73
2023/04/17 16:52:10;;;;;;;2.05;1.80;;;;;;;26.27;40.46;100254.47;20992595;28;20039;-72
2023/04/17 17:02:12;;;;;;;1.60;1.50;;;;;;;26.15;41.00;100212.25;20997270;28;20109;-72
2023/04/17 17:12:14;;;;;;;2.13;1.90;;;;;;;26.24;40.95;100232.69;21008289;28;20395;-72
2023/04/17 17:22:18;;;;;;;2.03;1.80;;;;;;;26.05;40.85;100178.97;21007172;28;20036;-72
2023/04/17 17:32:19;;;;;;;2.33;1.83;;;;;;;26.21;40.66;100182.09;21007334;28;20383;-72
2023/04/17 17:42:20;;;;;;;1.88;1.63;;;;;;;26.25;40.52;100180.22;21006004;28;20056;-72
2023/04/17 17:52:24;;;;;;;2.30;1.80;;;;;;;26.20;40.16;100175.63;21005481;28;20453;-72
2023/04/17 18:02:26;;;;;;;2.40;1.70;;;;;;;26.23;40.45;100158.13;21004630;28;20052;-72
2023/04/17 18:12:27;;;;;;;1.83;1.73;;;;;;;26.22;40.41;100139.66;21003225;28;20044;-72
2023/04/17 18:22:28;;;;;;;2.50;1.73;;;;;;;26.10;40.25;100125.53;20997265;28;20041;-73
2023/04/17 18:32:30;;;;;;;1.92;1.70;;;;;;;26.23;40.33;100118.88;21002139;28;20036;-72
2023/04/17 18:42:32;;;;;;;2.38;1.58;;;;;;;26.21;40.46;100109.16;20996966;28;20553;-72
2023/04/17 18:52:37;;;;;;;1.73;1.60;;;;;;;26.21;39.88;100095.97;20981704;28;20041;-72
2023/04/17 19:02:39;;;;;;;2.30;1.75;;;;;;;26.23;40.01;100085.22;20915397;28;20056;-74
2023/04/17 19:12:41;;;;;;;2.85;1.25;;;;;;;26.20;39.55;100083.09;20915135;28;20049;-72
2023/04/17 19:22:43;;;;;;;1.50;1.40;;;;;;;26.22;39.83;100071.53;20914548;28;20041;-72
2023/04/17 19:32:47;;;;;;;1.30;1.10;;;;;;;26.18;39.60;100034.94;20913856;28;20400;-72
2023/04/17 19:42:48;;;;;;;2.90;1.70;;;;;;;26.14;39.79;100028.38;20913287;28;20118;-72
2023/04/17 19:52:50;;;;;;;1.67;1.58;;;;;;;26.12;39.46;100016.69;20914117;28;20468;-73
2023/04/17 20:02:51;;;;;;;1.48;1.38;;;;;;;26.22;39.22;100033.09;20910609;28;20513;-72
2023/04/17 20:12:52;;;;;;;2.00;1.40;;;;;;;26.19;39.27;100005.72;20910547;28;20106;-72
2023/04/17 20:22:54;;;;;;;2.42;1.45;;;;;;;26.21;39.10;100009.03;20940327;28;20364;-71
2023/04/17 20:32:55;;;;;;;1.50;1.40;;;;;;;26.21;38.63;100025.03;20988508;28;20059;-71
2023/04/17 20:42:56;;;;;;;1.50;1.27;;;;;;;26.01;37.75;100007.00;20988035;28;20044;-71
2023/04/17 20:52:58;;;;;;;1.45;1.27;;;;;;;26.21;38.09;100048.28;20987602;28;20048;-71
2023/04/17 21:02:59;;;;;;;2.05;1.15;;;;;;;26.20;36.57;100063.44;20981225;28;20045;-72
2023/04/17 21:13:01;;;;;;;2.10;1.35;;;;;;;26.11;36.31;100065.47;20974794;28;20103;-73
2023/04/17 21:23:02;;;;;;;3.53;1.60;;;;;;;26.05;36.71;100086.47;20981859;28;20059;-73
2023/04/17 21:33:03;;;;;;;6.38;1.42;;;;;;;25.87;36.43;100059.66;20974893;28;20082;-73
2023/04/17 21:43:07;;;;;;;4.40;1.60;;;;;;;25.98;37.12;100083.34;20981750;28;20102;-73
2023/04/17 21:53:09;;;;;;;4.03;1.65;;;;;;;26.00;36.22;100106.28;20990266;28;20491;-73
2023/04/17 22:03:10;;;;;;;15.50;2.30;;;;;;;26.00;36.75;100109.06;21008045;28;20102;-72
2023/04/17 22:13:14;;;;;;;14.18;2.10;;;;;;;26.01;36.16;100119.94;21014657;28;20102;-73
2023/04/17 22:23:15;;;;;;;13.60;2.33;;;;;;;25.96;37.02;100122.13;21019648;28;20044;-73
2023/04/17 22:33:26;;;;;;;11.20;1.83;;;;;;;25.86;36.33;100114.91;21014592;28;20040;-73
2023/04/17 22:43:27;;;;;;;7.32;1.88;;;;;;;25.88;37.22;100151.00;20998609;28;20581;-72
2023/04/17 22:53:30;;;;;;;6.07;1.75;;;;;;;25.72;35.93;100157.09;20987669;28;20059;-72
2023/04/17 23:03:31;;;;;;;7.28;1.60;;;;;;;25.84;36.19;100207.72;20989973;28;20948;-72
2023/04/17 23:13:34;;;;;;;4.45;1.45;;;;;;;25.60;35.98;100184.97;21022060;28;20095;-72
2023/04/17 23:23:35;;;;;;;5.30;1.52;;;;;;;25.76;35.57;100230.97;20987393;28;20037;-71
2023/04/17 23:33:37;;;;;;;6.07;1.40;;;;;;;25.76;36.94;100250.59;21002945;28;20454;-72
2023/04/17 23:43:38;;;;;;;6.30;1.83;;;;;;;25.75;35.23;100276.94;21013600;28;20063;-74
2023/04/17 23:53:39;;;;;;;2.67;1.25;;;;;;;25.73;34.38;100320.44;21007588;28;20406;-70
